Time;durP1;ratioP1;P1;durP2;ratioP2;P2;SDS_P1;SDS_P2;PMS_P1;PMS_P2;Temp;Humidity;BMP_temperature;BMP_pressure;BME280_temperature;BME280_humidity;BME280_pressure;Samples;Min_cycle;Max_cycle;Signal;HPM_P1;HPM_P2
2020/12/12 00:01:25;;;;;;;3.00;1.80;;;20.90;42.50;;;;;;1504615;91;21199;-36
2020/12/12 00:03:53;;;;;;;2.62;1.80;;;20.90;42.40;;;;;;1522775;92;21421;-37
2020/12/12 00:06:22;;;;;;;8.40;2.15;;;20.90;42.50;;;;;;1520239;91;21247;-34
2020/12/12 00:08:50;;;;;;;2.98;1.87;;;21.00;42.60;;;;;;1525602;92;21147;-37
2020/12/12 00:11:20;;;;;;;3.47;2.17;;;20.90;42.60;;;;;;1528246;92;21703;-36
2020/12/12 00:13:48;;;;;;;2.75;2.00;;;20.90;42.60;;;;;;1501093;92;21184;-35
2020/12/12 00:16:17;;;;;;;1.65;1.55;;;20.90;42.60;;;;;;1516754;92;21239;-36
2020/12/12 00:18:45;;;;;;;2.92;2.00;;;20.90;42.60;;;;;;1520729;92;21340;-37
2020/12/12 00:21:14;;;;;;;2.58;1.70;;;20.90;42.70;;;;;;1512451;92;21294;-37
2020/12/12 00:23:42;;;;;;;3.05;1.77;;;20.90;42.70;;;;;;1529807;92;21278;-35
2020/12/12 00:26:10;;;;;;;2.98;1.62;;;20.90;42.60;;;;;;1511485;92;21221;-34
2020/12/12 00:28:37;;;;;;;2.37;1.80;;;20.80;43.20;;;;;;1522639;92;21824;-37
2020/12/12 00:31:05;;;;;;;2.50;1.40;;;20.80;42.60;;;;;;1513690;92;21160;-30
2020/12/12 00:33:32;;;;;;;2.52;1.98;;;20.80;42.60;;;;;;1517817;92;21182;-34
2020/12/12 00:36:01;;;;;;;1.45;1.35;;;20.80;42.60;;;;;;1519007;92;21221;-39
2020/12/12 00:38:28;;;;;;;3.60;1.95;;;20.80;42.60;;;;;;1526938;92;21316;-37
2020/12/12 00:40:59;;;;;;;1.62;1.50;;;20.80;42.60;;;;;;1521866;93;21246;-36
2020/12/12 00:43:27;;;;;;;2.65;1.62;;;20.80;42.70;;;;;;1525311;91;21331;-36
2020/12/12 00:45:55;;;;;;;2.12;1.60;;;20.80;42.60;;;;;;1517674;91;21205;-34
2020/12/12 00:48:23;;;;;;;4.28;1.95;;;20.80;42.70;;;;;;1508025;92;21383;-35
2020/12/12 00:50:50;;;;;;;5.55;1.98;;;20.80;43.10;;;;;;1528625;92;21302;-33
2020/12/12 00:53:18;;;;;;;3.72;1.90;;;20.80;43.30;;;;;;1493405;92;22175;-36
2020/12/12 00:55:46;;;;;;;2.50;1.57;;;20.80;43.00;;;;;;1523505;91;21209;-36
2020/12/12 00:58:14;;;;;;;6.12;2.12;;;20.80;43.20;;;;;;1528290;92;21312;-35
2020/12/12 01:00:41;;;;;;;1.87;1.60;;;20.80;43.30;;;;;;1508496;93;21256;-36
2020/12/12 01:03:09;;;;;;;3.95;2.10;;;20.80;43.60;;;;;;1522633;92;21361;-32
2020/12/12 01:05:37;;;;;;;2.40;1.62;;;20.80;43.30;;;;;;1500558;93;21693;-37
2020/12/12 01:08:05;;;;;;;4.30;2.08;;;20.80;43.50;;;;;;1507121;92;21280;-36
2020/12/12 01:10:32;;;;;;;2.47;1.47;;;20.80;43.40;;;;;;1528227;92;21180;-35
2020/12/12 01:13:00;;;;;;;1.87;1.65;;;20.80;43.50;;;;;;1511020;92;21198;-36
2020/12/12 01:15:28;;;;;;;4.42;1.67;;;20.80;43.40;;;;;;1528563;92;21208;-32
2020/12/12 01:17:55;;;;;;;2.87;1.60;;;20.70;43.40;;;;;;1535694;92;21969;-36
2020/12/12 01:20:23;;;;;;;2.42;1.52;;;20.80;43.40;;;;;;1565352;91;21247;-36
2020/12/12 01:22:51;;;;;;;2.25;1.72;;;20.70;43.50;;;;;;1547785;91;21522;-34
2020/12/12 01:25:18;;;;;;;2.75;1.82;;;20.70;43.50;;;;;;1561105;90;21606;-31
2020/12/12 01:27:46;;;;;;;2.05;1.67;;;20.70;43.60;;;;;;1535239;91;21770;-35
2020/12/12 01:30:14;;;;;;;1.67;1.47;;;20.70;43.70;;;;;;1552411;91;21278;-37
2020/12/12 01:32:42;;;;;;;2.27;1.57;;;20.70;43.70;;;;;;1532250;91;21229;-34
2020/12/12 01:35:09;;;;;;;3.02;1.80;;;20.70;43.70;;;;;;1549956;91;21216;-33
2020/12/12 01:37:37;;;;;;;3.25;1.77;;;20.80;43.70;;;;;;1553741;90;21282;-38
2020/12/12 01:40:05;;;;;;;1.67;1.42;;;20.70;43.80;;;;;;1516292;91;21771;-37
2020/12/12 01:42:34;;;;;;;2.92;1.65;;;20.70;43.80;;;;;;1554414;91;21290;-35
2020/12/12 01:45:02;;;;;;;3.15;1.67;;;20.70;43.70;;;;;;1533009;91;21142;-31
2020/12/12 01:47:30;;;;;;;2.65;2.17;;;20.70;43.80;;;;;;1552523;91;21201;-32
2020/12/12 01:49:57;;;;;;;4.17;1.95;;;20.70;43.70;;;;;;1553549;91;21244;-37
2020/12/12 01:52:26;;;;;;;8.08;1.45;;;20.70;43.80;;;;;;1516255;91;22377;-36
2020/12/12 01:54:54;;;;;;;4.30;1.45;;;20.70;43.70;;;;;;1552299;91;21213;-38
2020/12/12 01:57:23;;;;;;;1.65;1.30;;;20.70;43.80;;;;;;1547425;91;21204;-34
2020/12/12 01:59:52;;;;;;;5.92;1.70;;;20.70;43.80;;;;;;1535059;91;21304;-35
2020/12/12 02:02:22;;;;;;;2.42;1.67;;;20.70;43.80;;;;;;1552262;91;21652;-36
2020/12/12 02:04:55;;;;;;;2.12;1.52;;;20.70;43.90;;;;;;1550794;91;21233;-36
2020/12/12 02:07:23;;;;;;;2.05;1.50;;;20.70;43.80;;;;;;1551173;91;21247;-35
2020/12/12 02:09:54;;;;;;;2.47;1.65;;;20.70;43.90;;;;;;1553266;91;21177;-36
2020/12/12 02:12:22;;;;;;;3.17;1.70;;;20.70;43.70;;;;;;1549122;91;21274;-33
2020/12/12 02:14:50;;;;;;;2.40;1.55;;;20.70;43.80;;;;;;1524205;91;21213;-33
2020/12/12 02:17:18;;;;;;;1.70;1.35;;;20.70;43.80;;;;;;1549392;90;21257;-33
2020/12/12 02:19:45;;;;;;;2.40;1.40;;;20.70;43.80;;;;;;1562870;91;21244;-36
2020/12/12 02:22:13;;;;;;;3.15;1.45;;;20.70;43.80;;;;;;1548524;91;21256;-36
2020/12/12 02:24:40;;;;;;;3.33;1.77;;;20.70;43.80;;;;;;1552714;91;21186;-34
2020/12/12 02:27:08;;;;;;;1.82;1.45;;;20.70;43.80;;;;;;1554033;91;21245;-33
2020/12/12 02:29:50;;;;;;;2.77;1.45;;;20.70;43.80;;;;;;1554663;91;21253;-34
2020/12/12 02:32:18;;;;;;;2.42;1.50;;;20.70;43.90;;;;;;1525952;92;67208;-37
2020/12/12 02:34:46;;;;;;;4.40;1.40;;;20.70;43.90;;;;;;1526363;92;21301;-32
2020/12/12 02:37:13;;;;;;;3.00;1.55;;;20.70;43.90;;;;;;1531841;92;21309;-36
2020/12/12 02:39:41;;;;;;;1.90;1.37;;;20.70;43.90;;;;;;1524114;92;21505;-34
2020/12/12 02:42:09;;;;;;;1.57;1.30;;;20.60;43.80;;;;;;1524442;92;21189;-36
2020/12/12 02:44:36;;;;;;;1.87;1.45;;;20.70;43.80;;;;;;1506269;93;21196;-35
2020/12/12 02:47:04;;;;;;;3.50;1.52;;;20.60;43.80;;;;;;1529167;92;21767;-37
2020/12/12 02:49:32;;;;;;;1.77;1.47;;;20.70;43.90;;;;;;1528668;92;21146;-34
2020/12/12 02:51:59;;;;;;;1.30;1.20;;;20.60;43.90;;;;;;1522121;93;21671;-35
2020/12/12 02:54:27;;;;;;;2.42;1.40;;;20.70;43.90;;;;;;1530573;92;21179;-37
2020/12/12 02:56:55;;;;;;;1.52;1.15;;;20.70;43.90;;;;;;1526637;92;21629;-31
2020/12/12 02:59:22;;;;;;;1.70;1.32;;;20.70;43.90;;;;;;1529606;91;21236;-35
2020/12/12 03:01:50;;;;;;;1.62;1.22;;;20.70;43.90;;;;;;1530713;91;21173;-37
2020/12/12 03:04:18;;;;;;;3.08;1.50;;;20.70;43.90;;;;;;1526186;92;21275;-36
2020/12/12 03:06:48;;;;;;;1.27;1.15;;;20.70;43.90;;;;;;1521452;92;21424;-29
2020/12/12 03:09:16;;;;;;;2.45;1.30;;;20.70;43.90;;;;;;1523405;92;21969;-34
2020/12/12 03:11:43;;;;;;;3.20;1.50;;;20.70;43.90;;;;;;1538168;91;21201;-30
2020/12/12 03:14:11;;;;;;;1.45;1.35;;;20.70;43.90;;;;;;1524500;91;21984;-37
2020/12/12 03:16:39;;;;;;;1.70;1.27;;;20.80;43.90;;;;;;1526524;92;21236;-36
2020/12/12 03:19:06;;;;;;;1.32;1.22;;;20.80;43.90;;;;;;1529879;91;21448;-37
2020/12/12 03:21:34;;;;;;;2.15;1.50;;;20.80;43.80;;;;;;1520071;92;21239;-34
2020/12/12 03:24:01;;;;;;;1.40;1.22;;;20.80;44.30;;;;;;1498799;93;21286;-37
2020/12/12 03:26:29;;;;;;;1.30;1.20;;;20.80;43.80;;;;;;1512841;91;21587;-37
2020/12/12 03:28:57;;;;;;;2.00;1.47;;;20.80;43.80;;;;;;1528791;92;21270;-35
2020/12/12 03:31:25;;;;;;;3.35;1.22;;;20.90;43.80;;;;;;1516106;92;21306;-34
2020/12/12 03:33:52;;;;;;;1.70;1.30;;;20.90;43.80;;;;;;1527560;92;21790;-33
2020/12/12 03:36:20;;;;;;;1.42;1.17;;;20.90;43.80;;;;;;1516252;91;21285;-35
2020/12/12 03:38:48;;;;;;;1.37;1.20;;;20.90;43.90;;;;;;1514580;93;21388;-35
2020/12/12 03:41:15;;;;;;;2.40;1.40;;;20.90;43.80;;;;;;1529376;91;21255;-34
2020/12/12 03:43:43;;;;;;;1.32;1.22;;;20.90;43.80;;;;;;1525912;91;21215;-35
2020/12/12 03:46:11;;;;;;;1.30;1.20;;;20.90;43.80;;;;;;1530383;92;21205;-36
2020/12/12 03:48:41;;;;;;;1.50;1.30;;;20.90;43.70;;;;;;1531648;92;22200;-37
2020/12/12 03:51:08;;;;;;;2.80;1.30;;;20.90;43.70;;;;;;1530954;91;22391;-35
2020/12/12 03:53:36;;;;;;;1.65;1.20;;;21.00;43.80;;;;;;1532481;91;21314;-37
2020/12/12 03:56:04;;;;;;;1.67;1.37;;;20.90;43.70;;;;;;1516688;92;21208;-31
2020/12/12 03:58:31;;;;;;;1.10;1.10;;;21.00;43.70;;;;;;1539283;91;21267;-38
2020/12/12 04:00:59;;;;;;;2.10;1.40;;;21.00;43.70;;;;;;1539672;91;21271;-36
2020/12/12 04:03:27;;;;;;;1.52;1.40;;;21.00;43.70;;;;;;1490467;92;21252;-37
2020/12/12 04:05:56;;;;;;;3.92;1.20;;;21.00;43.70;;;;;;1525739;92;21240;-35
2020/12/12 04:08:24;;;;;;;1.15;1.05;;;21.00;43.70;;;;;;1535199;91;21229;-37
2020/12/12 04:10:51;;;;;;;1.55;1.12;;;21.00;43.60;;;;;;1518796;92;21718;-37
2020/12/12 04:13:19;;;;;;;1.57;1.30;;;21.00;43.60;;;;;;1519921;92;21302;-34
2020/12/12 04:15:47;;;;;;;1.40;1.30;;;21.00;43.60;;;;;;1510330;93;21192;-35
2020/12/12 04:18:14;;;;;;;2.17;1.30;;;21.00;43.60;;;;;;1512543;91;21300;-34
2020/12/12 04:20:42;;;;;;;1.02;0.95;;;21.00;43.60;;;;;;1524105;91;21247;-36
2020/12/12 04:23:10;;;;;;;1.75;1.30;;;21.00;44.10;;;;;;1483116;93;21174;-36
2020/12/12 04:25:37;;;;;;;1.30;1.15;;;21.00;43.60;;;;;;1506888;92;21168;-36
2020/12/12 04:28:06;;;;;;;1.72;1.07;;;21.10;43.60;;;;;;1507991;92;21286;-37
2020/12/12 04:30:33;;;;;;;1.70;1.20;;;21.00;43.60;;;;;;1501019;93;21448;-36
2020/12/12 04:33:01;;;;;;;1.82;1.22;;;21.00;43.60;;;;;;1506412;91;21301;-37
2020/12/12 04:35:28;;;;;;;1.92;1.40;;;21.10;43.70;;;;;;1500149;93;21214;-35
2020/12/12 04:37:56;;;;;;;1.87;1.42;;;21.00;43.70;;;;;;1486142;93;21752;-36
2020/12/12 04:40:24;;;;;;;2.75;1.07;;;21.10;43.70;;;;;;1516927;92;21316;-37
2020/12/12 04:42:52;;;;;;;1.70;1.60;;;21.10;43.70;;;;;;1492750;93;21209;-31
2020/12/12 04:45:21;;;;;;;1.85;1.52;;;21.10;43.70;;;;;;1496974;93;21230;-39
2020/12/12 04:47:50;;;;;;;1.30;1.17;;;21.10;43.80;;;;;;1494816;93;21702;-36
2020/12/12 04:50:28;;;;;;;1.42;1.32;;;21.10;43.80;;;;;;1505680;93;21442;-36
2020/12/12 04:52:48;;;;;;;2.77;1.35;;;21.10;43.80;;;;;;1508705;92;21270;-34
2020/12/12 04:55:16;;;;;;;1.67;1.40;;;21.10;43.80;;;;;;1506791;92;21292;-34
2020/12/12 04:57:45;;;;;;;1.42;1.32;;;21.10;43.90;;;;;;1496331;92;21425;-36
2020/12/12 05:00:14;;;;;;;1.70;1.40;;;21.10;43.80;;;;;;1514593;92;21273;-35
2020/12/12 05:02:42;;;;;;;4.10;1.55;;;21.10;43.90;;;;;;1490998;93;21683;-35
2020/12/12 05:05:09;;;;;;;5.00;1.67;;;21.10;43.90;;;;;;1492600;93;21312;-36
2020/12/12 05:07:37;;;;;;;2.92;1.72;;;21.10;43.90;;;;;;1499754;93;21277;-35
2020/12/12 05:10:05;;;;;;;2.15;1.30;;;21.10;44.30;;;;;;1482952;92;21749;-34
2020/12/12 05:12:35;;;;;;;1.85;1.30;;;21.10;43.90;;;;;;1497478;93;21308;-36
2020/12/12 05:15:03;;;;;;;1.72;1.12;;;21.10;44.00;;;;;;1492429;93;21220;-37
2020/12/12 05:17:31;;;;;;;1.40;1.30;;;21.10;44.00;;;;;;1491434;93;21204;-34
2020/12/12 05:19:59;;;;;;;1.90;1.62;;;21.10;44.00;;;;;;1512029;92;21221;-36
2020/12/12 05:22:27;;;;;;;1.92;1.37;;;21.20;44.00;;;;;;1507936;92;21140;-36
2020/12/12 05:24:54;;;;;;;1.72;1.55;;;21.10;44.10;;;;;;1531769;92;21342;-36
2020/12/12 05:27:22;;;;;;;1.92;1.72;;;21.10;44.00;;;;;;1532895;91;21504;-36
2020/12/12 05:29:50;;;;;;;1.32;1.20;;;21.10;44.00;;;;;;1526426;92;21243;-31
2020/12/12 05:32:18;;;;;;;1.52;1.42;;;21.10;44.00;;;;;;1525289;92;21195;-33
2020/12/12 05:34:45;;;;;;;1.67;1.30;;;21.10;44.00;;;;;;1535567;92;21773;-37
2020/12/12 05:37:15;;;;;;;2.22;1.42;;;21.20;44.00;;;;;;1511671;92;21409;-36
2020/12/12 05:39:46;;;;;;;2.83;1.40;;;21.20;44.00;;;;;;1525967;92;21271;-34
2020/12/12 05:42:21;;;;;;;1.92;1.40;;;21.20;44.00;;;;;;1525847;92;21287;-37
2020/12/12 05:44:51;;;;;;;1.47;1.30;;;21.10;44.00;;;;;;1528081;91;21228;-36
2020/12/12 05:47:20;;;;;;;1.90;1.30;;;21.20;44.60;;;;;;1527614;92;21837;-37
2020/12/12 05:49:48;;;;;;;1.32;1.22;;;21.20;44.10;;;;;;1507606;93;21243;-35
2020/12/12 05:52:18;;;;;;;2.08;1.70;;;21.20;44.70;;;;;;1524258;92;21240;-37
2020/12/12 05:54:45;;;;;;;1.50;1.40;;;21.20;44.10;;;;;;1531558;92;21237;-33
2020/12/12 05:57:13;;;;;;;2.05;1.80;;;21.20;44.20;;;;;;1534967;92;21338;-37
2020/12/12 05:59:42;;;;;;;2.33;1.80;;;21.20;44.10;;;;;;1548028;92;21263;-34
2020/12/12 06:02:13;;;;;;;1.60;1.45;;;21.20;44.10;;;;;;1489789;92;21581;-36
2020/12/12 06:04:52;;;;;;;2.37;1.45;;;21.20;44.10;;;;;;1526493;92;21178;-31
2020/12/12 06:07:28;;;;;;;2.33;1.87;;;21.20;44.20;;;;;;1528989;92;21248;-35
2020/12/12 06:10:05;;;;;;;1.62;1.52;;;21.20;44.10;;;;;;1521638;92;21236;-37
2020/12/12 06:12:33;;;;;;;2.05;1.50;;;21.20;44.30;;;;;;1523507;91;21295;-35
2020/12/12 06:15:02;;;;;;;1.70;1.60;;;21.10;44.10;;;;;;1511354;93;21290;-38
2020/12/12 06:17:57;;;;;;;1.57;1.47;;;21.20;44.10;;;;;;1513113;92;21803;-38
2020/12/12 06:20:27;;;;;;;1.55;1.45;;;21.20;44.10;;;;;;1536221;91;68246;-41
2020/12/12 06:22:55;;;;;;;1.50;1.40;;;21.20;44.10;;;;;;1565891;90;21303;-38
2020/12/12 06:25:23;;;;;;;1.32;1.22;;;21.20;44.10;;;;;;1566571;90;21184;-31
2020/12/12 06:27:54;;;;;;;1.75;1.50;;;21.20;44.70;;;;;;1553926;90;21396;-37
2020/12/12 06:30:26;;;;;;;1.95;1.62;;;21.20;44.20;;;;;;1557651;90;21212;-33
2020/12/12 06:33:04;;;;;;;1.30;1.20;;;21.20;44.10;;;;;;1559527;90;21212;-37
2020/12/12 06:35:33;;;;;;;1.30;1.20;;;21.20;44.20;;;;;;1546369;91;21630;-38
2020/12/12 06:38:29;;;;;;;1.52;1.42;;;21.20;44.10;;;;;;1553143;90;21240;-37
2020/12/12 06:40:59;;;;;;;1.80;1.60;;;21.20;44.20;;;;;;1484098;91;68362;-39
2020/12/12 06:43:29;;;;;;;1.60;1.40;;;21.20;44.10;;;;;;1505331;93;21781;-37
2020/12/12 06:45:58;;;;;;;1.80;1.50;;;21.20;44.20;;;;;;1483805;95;21232;-32
2020/12/12 06:48:27;;;;;;;1.80;1.60;;;21.20;44.20;;;;;;1505526;93;23020;-36
2020/12/12 06:50:57;;;;;;;1.67;1.57;;;21.20;44.10;;;;;;1505049;94;21348;-36
2020/12/12 06:53:27;;;;;;;1.37;1.27;;;21.20;44.20;;;;;;1502354;94;21867;-33
2020/12/12 06:56:08;;;;;;;1.72;1.62;;;21.20;44.20;;;;;;1502250;94;21235;-36
2020/12/12 06:58:37;;;;;;;1.57;1.40;;;21.20;44.20;;;;;;1488653;93;67474;-35
2020/12/12 07:01:32;;;;;;;1.77;1.62;;;21.20;44.20;;;;;;1507776;93;21268;-37
2020/12/12 07:04:02;;;;;;;1.62;1.45;;;21.20;44.20;;;;;;1461688;93;67346;-30
2020/12/12 07:06:31;;;;;;;1.52;1.42;;;21.20;44.20;;;;;;1491243;92;21215;-39
2020/12/12 07:09:01;;;;;;;1.87;1.70;;;21.20;44.20;;;;;;1526793;92;21248;-38
2020/12/12 07:11:31;;;;;;;2.22;1.85;;;21.20;44.10;;;;;;1523630;92;21344;-37
2020/12/12 07:13:59;;;;;;;1.52;1.42;;;21.20;44.10;;;;;;1509404;92;21236;-36
2020/12/12 07:16:28;;;;;;;1.77;1.67;;;21.20;44.20;;;;;;1525721;92;21261;-37
2020/12/12 07:18:56;;;;;;;1.62;1.50;;;21.20;44.20;;;;;;1537733;92;21268;-37
2020/12/12 07:21:24;;;;;;;2.27;1.45;;;21.20;44.20;;;;;;1518662;92;21397;-34
2020/12/12 07:23:52;;;;;;;2.65;1.60;;;21.20;44.10;;;;;;1499676;94;21235;-37
2020/12/12 07:26:19;;;;;;;1.82;1.57;;;21.20;44.20;;;;;;1498217;94;21219;-35
2020/12/12 07:28:47;;;;;;;2.55;1.20;;;21.20;44.10;;;;;;1493816;94;21318;-37
2020/12/12 07:31:15;;;;;;;2.37;1.35;;;21.20;44.10;;;;;;1477827;94;21831;-37
2020/12/12 07:33:47;;;;;;;1.40;1.30;;;21.20;44.20;;;;;;1491188;94;21874;-38
2020/12/12 07:36:15;;;;;;;1.55;1.45;;;21.20;44.20;;;;;;1490221;94;21301;-37
2020/12/12 07:38:43;;;;;;;2.35;1.40;;;21.20;44.90;;;;;;1475609;94;21521;-39
2020/12/12 07:41:12;;;;;;;2.77;1.40;;;21.20;44.30;;;;;;1490749;93;21906;-38
2020/12/12 07:43:57;;;;;;;1.55;1.45;;;21.20;44.40;;;;;;1494733;94;21286;-38
2020/12/12 07:46:40;;;;;;;1.67;1.30;;;21.20;44.50;;;;;;1483146;93;67134;-37
2020/12/12 07:49:11;;;;;;;1.95;1.47;;;21.20;44.60;;;;;;1493924;93;67711;-37
2020/12/12 07:51:39;;;;;;;1.60;1.50;;;21.30;44.70;;;;;;1478077;94;21230;-30
2020/12/12 07:54:22;;;;;;;1.87;1.60;;;21.30;44.70;;;;;;1494324;94;21674;-37
2020/12/12 07:56:54;;;;;;;1.80;1.30;;;21.30;44.70;;;;;;1491992;94;21462;-35
2020/12/12 07:59:22;;;;;;;3.08;1.40;;;21.20;44.60;;;;;;1492091;94;21733;-38
2020/12/12 08:01:51;;;;;;;2.00;1.62;;;21.30;44.70;;;;;;1493817;94;21844;-35
2020/12/12 08:04:21;;;;;;;1.50;1.40;;;21.30;44.70;;;;;;1494610;94;21211;-35
2020/12/12 08:06:49;;;;;;;1.50;1.35;;;21.30;44.70;;;;;;1492069;94;21226;-33
2020/12/12 08:09:21;;;;;;;1.65;1.40;;;21.30;44.70;;;;;;1494401;94;21430;-41
2020/12/12 08:12:00;;;;;;;1.80;1.30;;;21.20;44.60;;;;;;1492400;94;21226;-38
2020/12/12 08:14:31;;;;;;;1.70;1.40;;;21.30;44.70;;;;;;1493389;94;21238;-37
2020/12/12 08:16:59;;;;;;;1.17;1.07;;;21.30;44.70;;;;;;1493531;94;21230;-36
2020/12/12 08:19:28;;;;;;;1.30;1.20;;;21.30;44.70;;;;;;1477247;94;21191;-38
2020/12/12 08:22:14;;;;;;;1.37;1.27;;;21.30;44.70;;;;;;1494419;94;21171;-34
2020/12/12 08:24:44;;;;;;;1.65;1.20;;;21.30;44.70;;;;;;1467434;95;67641;-32
2020/12/12 08:27:16;;;;;;;1.75;1.37;;;21.30;44.70;;;;;;1471476;95;21208;-33
2020/12/12 08:29:55;;;;;;;1.60;1.45;;;21.30;44.70;;;;;;1457119;95;21208;-39
2020/12/12 08:32:40;;;;;;;1.87;1.37;;;21.30;44.70;;;;;;1474973;93;21605;-38
2020/12/12 08:35:25;;;;;;;2.02;1.62;;;21.30;44.60;;;;;;1472820;94;67453;-35
2020/12/12 08:38:01;;;;;;;1.70;1.60;;;21.30;44.60;;;;;;1494410;93;67686;-35
2020/12/12 08:40:30;;;;;;;;;;;21.30;44.60;;;;;;1501963;93;22185;-33
2020/12/12 08:43:06;;;;;;;1.80;1.20;;;21.30;44.70;;;;;;1483086;93;20263;-37
2020/12/12 08:45:37;;;;;;;1.77;1.37;;;21.30;45.20;;;;;;1483839;93;21886;-38
2020/12/12 08:48:10;;;;;;;1.52;1.42;;;21.30;44.70;;;;;;1499613;92;21576;-32
2020/12/12 08:50:56;;;;;;;1.95;1.50;;;21.30;44.70;;;;;;1497014;93;21270;-36
2020/12/12 08:53:27;;;;;;;4.77;1.57;;;21.30;44.70;;;;;;1492465;93;67810;-36
2020/12/12 08:56:09;;;;;;;3.42;1.17;;;21.30;44.70;;;;;;1492971;93;23127;-34
2020/12/12 08:58:46;;;;;;;2.00;1.37;;;21.30;44.70;;;;;;1494135;93;67810;-35
2020/12/12 09:01:36;;;;;;;1.42;1.32;;;21.30;44.80;;;;;;1492779;94;21765;-37
2020/12/12 09:04:14;;;;;;;3.15;1.47;;;21.30;44.80;;;;;;1495405;89;67716;-33
2020/12/12 09:06:45;;;;;;;1.30;1.20;;;21.30;44.80;;;;;;1496310;94;21206;-37
2020/12/12 09:09:19;;;;;;;2.42;1.47;;;21.30;44.80;;;;;;1477472;94;21186;-36
2020/12/12 09:11:58;;;;;;;1.70;1.47;;;21.30;44.80;;;;;;1491906;93;21867;-36
2020/12/12 09:14:28;;;;;;;1.60;1.40;;;21.30;44.80;;;;;;1467248;95;67833;-36
2020/12/12 09:16:58;;;;;;;1.65;1.50;;;21.30;44.80;;;;;;1455547;95;21192;-33
2020/12/12 09:19:27;;;;;;;1.60;1.20;;;21.30;44.80;;;;;;1474288;94;21183;-35
2020/12/12 09:21:55;;;;;;;1.50;1.35;;;21.30;44.80;;;;;;1469146;94;21168;-32
2020/12/12 09:24:23;;;;;;;1.75;1.50;;;21.30;44.70;;;;;;1479208;94;21243;-37
2020/12/12 09:26:53;;;;;;;1.75;1.60;;;21.40;44.80;;;;;;1478584;94;23814;-37
2020/12/12 09:29:22;;;;;;;2.12;1.67;;;21.40;44.80;;;;;;1479922;95;21283;-34
2020/12/12 09:31:51;;;;;;;3.00;1.32;;;21.40;44.70;;;;;;1481646;95;21267;-37
2020/12/12 09:34:20;;;;;;;1.30;1.20;;;21.40;44.60;;;;;;1464541;95;21602;-34
2020/12/12 09:36:49;;;;;;;3.37;1.57;;;21.40;44.70;;;;;;1465050;95;21282;-36
2020/12/12 09:39:17;;;;;;;8.40;2.80;;;21.40;45.10;;;;;;1465426;95;21227;-35
2020/12/12 09:41:45;;;;;;;15.98;3.27;;;21.50;45.10;;;;;;1478095;95;21338;-37
2020/12/12 09:44:12;;;;;;;12.70;2.98;;;21.60;45.60;;;;;;1478133;95;21271;-30
2020/12/12 09:46:40;;;;;;;8.55;2.42;;;21.70;45.50;;;;;;1480048;94;21797;-29
2020/12/12 09:49:08;;;;;;;6.37;2.37;;;21.60;44.90;;;;;;1448830;95;21769;-36
2020/12/12 09:51:35;;;;;;;8.05;2.65;;;21.70;45.00;;;;;;1481049;95;21311;-36
2020/12/12 09:54:03;;;;;;;9.85;2.62;;;21.80;45.00;;;;;;1463017;94;21187;-37
2020/12/12 09:56:31;;;;;;;7.47;2.15;;;21.80;44.90;;;;;;1462882;95;21272;-38
2020/12/12 09:58:59;;;;;;;5.05;2.58;;;21.80;44.70;;;;;;1479486;94;21675;-31
2020/12/12 10:01:27;;;;;;;6.17;2.15;;;21.90;44.70;;;;;;1467053;95;21268;-37
2020/12/12 10:03:54;;;;;;;18.05;2.20;;;21.90;44.70;;;;;;1482918;95;21442;-34
2020/12/12 10:06:22;;;;;;;9.23;2.12;;;21.90;44.50;;;;;;1478114;95;21634;-36
2020/12/12 10:08:50;;;;;;;6.25;2.20;;;21.90;44.40;;;;;;1481386;95;21224;-35
2020/12/12 10:11:18;;;;;;;3.77;2.35;;;21.90;44.40;;;;;;1481637;94;21307;-32
2020/12/12 10:13:46;;;;;;;6.25;2.25;;;21.90;44.40;;;;;;1461950;95;21260;-37
2020/12/12 10:16:13;;;;;;;5.90;2.22;;;21.90;44.30;;;;;;1466270;95;21581;-37
2020/12/12 10:18:41;;;;;;;7.12;2.27;;;21.90;44.20;;;;;;1482414;95;22485;-37
2020/12/12 10:21:09;;;;;;;9.65;2.30;;;21.90;44.10;;;;;;1434138;95;21283;-38
2020/12/12 10:23:37;;;;;;;5.28;2.35;;;22.00;44.70;;;;;;1476316;94;21176;-34
2020/12/12 10:26:05;;;;;;;4.40;1.90;;;22.00;44.70;;;;;;1501854;94;21262;-34
2020/12/12 10:28:32;;;;;;;7.80;2.20;;;22.00;44.50;;;;;;1465061;94;21219;-37
2020/12/12 10:31:00;;;;;;;7.50;2.67;;;22.00;44.70;;;;;;1499937;94;21233;-32
2020/12/12 10:33:28;;;;;;;4.20;2.15;;;22.10;44.60;;;;;;1485675;94;21228;-31
2020/12/12 10:35:55;;;;;;;6.03;2.20;;;22.10;44.50;;;;;;1503171;94;21275;-34
2020/12/12 10:38:23;;;;;;;3.33;2.05;;;22.10;44.40;;;;;;1502899;94;21791;-33
2020/12/12 10:43:37;;;;;;;4.72;2.25;;;22.10;44.60;;;;;;1506153;92;67735;-35
2020/12/12 10:46:05;;;;;;;4.72;2.35;;;22.10;44.40;;;;;;1528143;92;21673;-37
2020/12/12 10:48:33;;;;;;;4.70;1.87;;;22.20;44.60;;;;;;1523321;92;21621;-33
2020/12/12 10:51:00;;;;;;;4.12;1.85;;;22.20;44.50;;;;;;1523560;92;21362;-37
2020/12/12 10:53:28;;;;;;;4.85;1.95;;;22.20;44.50;;;;;;1519412;92;21268;-39
2020/12/12 10:55:56;;;;;;;5.97;2.12;;;22.20;44.40;;;;;;1522126;92;22024;-37
2020/12/12 10:58:23;;;;;;;4.40;1.80;;;22.20;44.30;;;;;;1520678;92;21296;-32
2020/12/12 11:00:52;;;;;;;4.97;2.25;;;22.20;44.30;;;;;;1505005;94;22428;-37
2020/12/12 11:03:20;;;;;;;6.08;2.10;;;22.20;44.30;;;;;;1527080;92;21264;-34
2020/12/12 11:05:47;;;;;;;6.75;1.82;;;22.20;44.20;;;;;;1510377;94;21257;-37
2020/12/12 11:08:15;;;;;;;5.65;2.20;;;22.20;44.40;;;;;;1525226;92;21841;-37
2020/12/12 11:10:43;;;;;;;5.03;2.20;;;22.20;44.20;;;;;;1525472;92;21310;-34
2020/12/12 11:13:10;;;;;;;3.58;1.75;;;22.20;44.20;;;;;;1507389;92;21157;-38
2020/12/12 11:15:40;;;;;;;3.92;2.00;;;22.20;44.10;;;;;;1525234;92;22425;-38
2020/12/12 11:18:07;;;;;;;8.23;2.60;;;22.20;44.00;;;;;;1527712;92;21287;-38
2020/12/12 11:20:35;;;;;;;2.77;1.67;;;22.20;44.00;;;;;;1491884;92;21212;-40
2020/12/12 11:23:03;;;;;;;2.27;1.67;;;22.30;44.10;;;;;;1525081;92;22498;-35
2020/12/12 11:25:31;;;;;;;2.62;1.98;;;22.30;44.00;;;;;;1524289;92;21233;-39
2020/12/12 11:27:58;;;;;;;7.10;1.50;;;22.30;44.00;;;;;;1527353;92;21291;-38
2020/12/12 11:30:26;;;;;;;5.67;1.60;;;22.30;44.10;;;;;;1524172;92;21423;-37
2020/12/12 11:32:54;;;;;;;3.72;2.00;;;22.30;43.80;;;;;;1493374;94;22330;-38
2020/12/12 11:36:10;;;;;;;3.10;1.65;;;22.30;43.90;;;;;;1527489;92;21244;-35
2020/12/12 11:38:11;;;;;;;4.37;1.57;;;22.30;44.00;;;;;;1516089;92;21998;-38
2020/12/12 11:40:46;;;;;;;3.72;2.02;;;22.30;43.90;;;;;;1522098;92;21727;-37
2020/12/12 11:46:38;;;;;;;2.22;1.50;;;22.40;43.90;;;;;;1501124;94;67563;-35
2020/12/12 11:48:22;;;;;;;4.55;1.70;;;22.40;43.90;;;;;;1489310;94;21255;-40
2020/12/12 11:50:50;;;;;;;2.47;1.67;;;22.40;43.70;;;;;;1499017;94;21341;-35
2020/12/12 11:53:18;;;;;;;3.33;1.92;;;22.40;43.80;;;;;;1469014;95;21730;-38
2020/12/12 11:55:46;;;;;;;9.98;2.08;;;22.30;43.80;;;;;;1498713;94;21222;-37
2020/12/12 11:58:14;;;;;;;3.75;1.47;;;22.30;43.80;;;;;;1485127;94;21218;-34
2020/12/12 12:00:43;;;;;;;2.05;1.82;;;22.30;43.80;;;;;;1482436;94;21204;-32
2020/12/12 12:03:15;;;;;;;4.42;1.50;;;22.30;43.80;;;;;;1500306;94;21202;-38
2020/12/12 12:05:43;;;;;;;2.75;1.62;;;22.30;43.80;;;;;;1469398;95;21830;-36
2020/12/12 12:08:41;;;;;;;6.12;1.90;;;22.30;43.80;;;;;;1499952;94;21737;-38
2020/12/12 12:10:42;;;;;;;3.08;2.02;;;22.30;44.00;;;;;;1496377;94;21265;-35
2020/12/12 12:13:10;;;;;;;5.62;1.90;;;22.30;44.00;;;;;;1501868;94;21277;-36
2020/12/12 12:15:38;;;;;;;3.05;1.50;;;22.30;43.80;;;;;;1503079;94;21395;-44
2020/12/12 12:18:06;;;;;;;1.95;1.32;;;22.30;43.70;;;;;;1483215;94;21251;-39
2020/12/12 12:20:34;;;;;;;2.47;1.70;;;22.40;43.80;;;;;;1479290;95;21702;-39
2020/12/12 12:23:01;;;;;;;2.92;1.60;;;22.40;43.80;;;;;;1503387;94;21251;-39
2020/12/12 12:25:29;;;;;;;2.98;1.70;;;22.40;43.80;;;;;;1480858;94;21831;-37
2020/12/12 12:27:57;;;;;;;2.58;1.90;;;22.40;43.70;;;;;;1478033;95;21287;-37
2020/12/12 12:30:24;;;;;;;2.22;1.77;;;22.40;43.70;;;;;;1491795;94;21436;-37
2020/12/12 12:32:52;;;;;;;3.92;1.72;;;22.40;43.80;;;;;;1467229;95;21311;-37
2020/12/12 12:35:20;;;;;;;3.47;1.52;;;22.40;43.70;;;;;;1477333;95;21641;-37
2020/12/12 12:37:48;;;;;;;2.58;2.00;;;22.40;43.70;;;;;;1458257;96;21220;-34
2020/12/12 12:40:15;;;;;;;2.25;1.47;;;22.40;43.70;;;;;;1477178;96;21201;-37
2020/12/12 12:42:43;;;;;;;3.98;1.65;;;22.40;43.60;;;;;;1476424;95;21323;-39
2020/12/12 12:45:11;;;;;;;4.22;1.57;;;22.40;43.70;;;;;;1457122;95;21300;-37
2020/12/12 12:47:38;;;;;;;2.12;1.90;;;22.40;43.80;;;;;;1470849;95;21208;-34
2020/12/12 12:50:06;;;;;;;2.22;1.80;;;22.30;43.90;;;;;;1485446;94;21232;-36
2020/12/12 12:52:34;;;;;;;2.98;1.70;;;22.20;44.00;;;;;;1471231;95;21208;-40
2020/12/12 12:55:01;;;;;;;2.22;1.70;;;22.20;44.00;;;;;;1467121;95;21323;-36
2020/12/12 12:57:30;;;;;;;2.17;1.52;;;22.10;44.00;;;;;;1458755;96;21567;-39
2020/12/12 12:59:58;;;;;;;3.25;1.55;;;22.10;44.00;;;;;;1476427;95;21718;-34
2020/12/12 13:02:26;;;;;;;3.02;1.67;;;22.10;44.00;;;;;;1480351;95;21196;-36
2020/12/12 13:04:53;;;;;;;2.58;1.77;;;22.10;44.00;;;;;;1456941;96;21248;-33